createdAt,value
2022-09-10T00:01:44.273Z,51.57
2022-09-10T00:06:46.217Z,52.59
2022-09-10T00:11:48.281Z,52.44
2022-09-10T00:16:50.609Z,54.94
2022-09-10T00:21:52.484Z,54.19
2022-09-10T00:26:54.632Z,54.41
2022-09-10T00:31:56.692Z,53.81
2022-09-10T00:36:59.557Z,54.75
2022-09-10T00:42:01.400Z,52.95
2022-09-10T00:47:04.770Z,50.69
2022-09-10T00:52:07.708Z,51.58
2022-09-10T00:57:14.714Z,51.34
2022-09-10T01:02:16.663Z,52.29
2022-09-10T01:07:19.931Z,53.23
2022-09-10T01:12:38.408Z,51.45
2022-09-10T01:18:08.352Z,51.27
2022-09-10T01:23:31.492Z,50.56
2022-09-10T01:28:49.575Z,50.41
2022-09-10T01:34:18.802Z,51.18
2022-09-10T01:39:24.020Z,51.46
2022-09-10T01:44:50.755Z,53.39
2022-09-10T01:50:26.529Z,51.30
2022-09-10T01:55:38.177Z,52.00
2022-09-10T02:00:50.097Z,51.48
2022-09-10T02:05:54.472Z,51.94
2022-09-10T02:11:00.904Z,51.82
2022-09-10T02:16:11.469Z,49.53
2022-09-10T02:21:18.628Z,49.12
2022-09-10T02:26:20.565Z,46.73
2022-09-10T02:31:22.779Z,47.67
2022-09-10T02:36:26.218Z,47.86
2022-09-10T02:41:30.142Z,50.13
2022-09-10T02:46:32.997Z,48.53
2022-09-10T02:51:35.203Z,47.94
2022-09-10T02:56:38.120Z,48.39
2022-09-10T03:01:40.489Z,49.08
2022-09-10T03:06:43.896Z,48.16
2022-09-10T03:11:46.731Z,46.61
2022-09-10T03:16:49.329Z,47.71
2022-09-10T03:21:52.945Z,47.99
2022-09-10T03:26:54.957Z,45.10
2022-09-10T03:31:57.947Z,44.33
2022-09-10T03:37:00.243Z,45.98
2022-09-10T03:42:05.283Z,44.97
2022-09-10T03:47:08.297Z,45.48
2022-09-10T03:52:13.318Z,45.65
2022-09-10T03:57:17.321Z,45.09
2022-09-10T04:02:20.783Z,46.19
2022-09-10T04:07:23.001Z,46.21
2022-09-10T04:12:27.035Z,45.63
2022-09-10T04:17:29.303Z,46.96
2022-09-10T04:22:31.328Z,48.34
2022-09-10T04:27:35.164Z,47.66
2022-09-10T04:32:38.385Z,46.09
2022-09-10T04:37:40.728Z,45.97
2022-09-10T04:42:44.344Z,47.47
2022-09-10T04:47:47.560Z,47.54
2022-09-10T04:52:49.761Z,47.34
2022-09-10T04:57:51.865Z,46.01
2022-09-10T05:02:54.145Z,44.64
2022-09-10T05:07:56.435Z,45.32
2022-09-10T05:12:58.986Z,45.87
2022-09-10T05:18:02.251Z,45.16
2022-09-10T05:23:05.601Z,44.06
2022-09-10T05:28:09.482Z,43.82
2022-09-10T05:33:11.773Z,43.71
2022-09-10T05:38:14.140Z,43.93
2022-09-10T05:43:16.818Z,43.58
2022-09-10T05:48:20.885Z,41.65
2022-09-10T05:53:23.801Z,40.54
2022-09-10T05:58:27.788Z,40.78
2022-09-10T06:03:30.133Z,41.78
2022-09-10T06:08:35.795Z,41.16
2022-09-10T06:13:47.610Z,42.00
2022-09-10T06:18:49.640Z,40.91
2022-09-10T06:23:55.872Z,41.82
2022-09-10T06:29:00.664Z,42.58
2022-09-10T06:34:04.336Z,40.80
2022-09-10T06:39:07.900Z,42.51
2022-09-10T06:44:30.040Z,41.95
2022-09-10T06:49:45.084Z,39.58
2022-09-10T06:54:48.106Z,40.52
2022-09-10T07:00:10.877Z,40.25
2022-09-10T07:05:14.145Z,40.38
2022-09-10T07:10:17.338Z,39.46
2022-09-10T07:15:20.212Z,39.63
2022-09-10T07:20:23.488Z,39.11
2022-09-10T07:25:26.479Z,37.52
2022-09-10T07:30:36.544Z,36.38
2022-09-10T07:35:39.262Z,37.94
2022-09-10T07:40:43.905Z,36.69
2022-09-10T07:45:46.754Z,36.34
2022-09-10T07:50:48.822Z,35.82
2022-09-10T07:56:01.868Z,36.46
2022-09-10T08:01:12.406Z,34.18
2022-09-10T08:06:15.870Z,32.86
2022-09-10T08:11:20.072Z,31.71
2022-09-10T08:16:27.081Z,29.83
2022-09-10T08:21:32.425Z,27.37
2022-09-10T08:26:35.872Z,28.52
2022-09-10T08:31:41.436Z,29.26
2022-09-10T08:36:51.396Z,27.37
2022-09-10T08:41:59.528Z,26.95
2022-09-10T08:47:14.604Z,24.78
2022-09-10T08:52:37.622Z,24.12
2022-09-10T08:57:56.057Z,21.85
2022-09-10T09:03:05.907Z,19.70
2022-09-10T09:08:14.521Z,19.85
2022-09-10T09:13:19.661Z,19.94
2022-09-10T09:18:28.084Z,19.70
2022-09-10T09:24:12.275Z,20.54
2022-09-10T09:29:30.447Z,20.50
2022-09-10T09:34:44.209Z,19.26
2022-09-10T09:40:12.593Z,19.60
2022-09-10T09:45:34.936Z,20.88
2022-09-10T09:50:42.095Z,19.25
2022-09-10T09:55:47.757Z,22.81
2022-09-10T10:01:13.208Z,21.22
2022-09-10T10:06:16.601Z,22.80
2022-09-10T10:11:20.289Z,20.99
2022-09-10T10:16:26.906Z,20.72
2022-09-10T10:21:33.116Z,19.89
2022-09-10T10:26:36.339Z,18.58
2022-09-10T10:31:41.546Z,18.59
2022-09-10T10:37:09.579Z,17.17
2022-09-10T10:42:41.481Z,15.54
2022-09-10T10:48:02.130Z,15.99
2022-09-10T10:53:30.898Z,22.45
2022-09-10T10:59:10.499Z,24.15
2022-09-10T11:04:29.621Z,27.29
2022-09-10T11:09:39.187Z,27.49
2022-09-10T11:15:16.409Z,28.58
2022-09-10T11:20:29.304Z,28.65
2022-09-10T11:25:39.441Z,26.31
2022-09-10T11:30:48.002Z,27.23
2022-09-10T11:36:08.754Z,27.81
2022-09-10T11:41:22.901Z,28.39
2022-09-10T11:46:56.509Z,23.95
2022-09-10T11:51:58.505Z,22.27
2022-09-10T11:57:23.449Z,18.13
2022-09-10T12:03:04.622Z,15.97
2022-09-10T12:08:17.586Z,15.15
2022-09-10T12:13:19.531Z,14.08
2022-09-10T12:18:43.062Z,14.69
2022-09-10T12:23:45.110Z,16.66
2022-09-10T12:28:53.115Z,20.60
2022-09-10T12:33:55.692Z,20.44
2022-09-10T12:39:21.801Z,23.43
2022-09-10T12:44:38.420Z,28.74
2022-09-10T12:50:06.651Z,31.44
2022-09-10T12:55:42.797Z,28.44
2022-09-10T13:00:58.193Z,28.39
2022-09-10T13:06:04.350Z,26.73
2022-09-10T13:11:16.016Z,22.68
2022-09-10T13:16:40.978Z,21.54
2022-09-10T13:21:42.977Z,21.99
2022-09-10T13:26:50.563Z,23.88
2022-09-10T13:32:14.173Z,22.02
2022-09-10T13:37:37.257Z,24.03
2022-09-10T13:42:58.727Z,26.72
2022-09-10T13:48:08.665Z,28.16
2022-09-10T13:53:13.730Z,28.81
2022-09-10T13:58:18.674Z,27.06
2022-09-10T14:03:30.167Z,25.11
2022-09-10T14:08:38.697Z,27.48
2022-09-10T14:13:56.264Z,26.21
2022-09-10T14:19:01.795Z,27.20
2022-09-10T14:24:04.064Z,27.85
2022-09-10T14:29:25.371Z,27.43
2022-09-10T14:34:32.762Z,25.68
2022-09-10T14:39:34.815Z,24.98
2022-09-10T14:44:41.646Z,23.29
2022-09-10T14:49:47.100Z,22.69
2022-09-10T14:54:49.069Z,22.72
2022-09-10T14:59:56.628Z,23.31
2022-09-10T15:04:59.219Z,26.72
2022-09-10T15:10:01.643Z,27.49
2022-09-10T15:15:04.038Z,27.26
2022-09-10T15:20:06.460Z,27.45
2022-09-10T15:25:27.511Z,26.55
2022-09-10T15:30:29.404Z,26.40
2022-09-10T15:35:31.286Z,27.03
2022-09-10T15:40:33.185Z,26.86
2022-09-10T15:45:35.748Z,28.73
2022-09-10T15:50:38.601Z,29.49
2022-09-10T15:55:40.524Z,31.55
2022-09-10T16:00:42.626Z,32.35
2022-09-10T16:05:44.518Z,32.25
2022-09-10T16:10:46.430Z,35.48
2022-09-10T16:16:19.450Z,36.54
2022-09-10T16:21:24.697Z,36.85
2022-09-10T16:26:29.446Z,40.23
2022-09-10T16:31:34.249Z,39.85
2022-09-10T16:36:37.878Z,41.97
2022-09-10T16:41:42.352Z,40.21
2022-09-10T16:46:44.857Z,38.85
2022-09-10T16:51:49.103Z,38.18
2022-09-10T16:56:51.203Z,36.76
2022-09-10T17:01:53.868Z,36.11
2022-09-10T17:06:56.984Z,37.51
2022-09-10T17:11:59.318Z,38.11
2022-09-10T17:17:01.614Z,38.82
2022-09-10T17:22:03.930Z,39.54
2022-09-10T17:27:06.662Z,37.95
2022-09-10T17:32:08.786Z,39.44
2022-09-10T17:37:10.709Z,38.68
2022-09-10T17:42:13.077Z,40.38
2022-09-10T17:47:15.109Z,38.82
2022-09-10T17:52:17.074Z,37.59
2022-09-10T17:57:19.096Z,36.23
2022-09-10T18:02:21.159Z,36.20
2022-09-10T18:07:23.338Z,35.18
2022-09-10T18:12:25.492Z,35.55
2022-09-10T18:17:27.595Z,36.28
2022-09-10T18:22:29.707Z,36.59
2022-09-10T18:27:32.066Z,36.80
2022-09-10T18:32:34.347Z,38.30
2022-09-10T18:37:36.524Z,38.24
2022-09-10T18:42:38.610Z,38.12
2022-09-10T18:47:45.062Z,36.39
2022-09-10T18:52:50.435Z,36.36
2022-09-10T18:57:52.580Z,35.54
2022-09-10T19:02:57.296Z,35.75
2022-09-10T19:07:59.628Z,36.72
2022-09-10T19:13:04.525Z,37.91
2022-09-10T19:18:06.896Z,36.71
2022-09-10T19:23:10.575Z,39.13
2022-09-10T19:28:14.130Z,38.56
2022-09-10T19:33:17.296Z,38.25
2022-09-10T19:38:36.566Z,37.55
2022-09-10T19:43:40.995Z,37.42
2022-09-10T19:48:43.552Z,38.93
2022-09-10T19:53:46.183Z,37.94
2022-09-10T19:58:53.793Z,37.40
2022-09-10T20:03:58.123Z,38.72
2022-09-10T20:09:00.976Z,38.81
2022-09-10T20:14:13.343Z,39.01
2022-09-10T20:19:22.756Z,38.94
2022-09-10T20:24:25.019Z,39.36
2022-09-10T20:29:28.432Z,40.01
2022-09-10T20:34:31.406Z,39.26
2022-09-10T20:39:34.691Z,39.27
2022-09-10T20:44:37.179Z,41.66
2022-09-10T20:49:39.120Z,42.64
2022-09-10T20:54:41.306Z,44.03
2022-09-10T20:59:44.125Z,42.77
2022-09-10T21:04:46.082Z,41.66
2022-09-10T21:09:48.063Z,43.13
2022-09-10T21:14:50.339Z,43.76
2022-09-10T21:19:52.293Z,44.39
2022-09-10T21:24:54.334Z,42.47
2022-09-10T21:29:56.861Z,41.18
2022-09-10T21:34:59.344Z,41.01
2022-09-10T21:40:02.303Z,40.17
2022-09-10T21:45:04.694Z,39.78
2022-09-10T21:50:06.914Z,40.71
2022-09-10T21:55:08.989Z,39.81
2022-09-10T22:00:14.903Z,39.28
2022-09-10T22:05:16.769Z,39.46
2022-09-10T22:10:21.289Z,40.09
2022-09-10T22:15:23.489Z,39.97
2022-09-10T22:20:25.557Z,40.96
2022-09-10T22:25:28.372Z,41.94
2022-09-10T22:30:30.910Z,40.43
2022-09-10T22:35:32.998Z,42.58
2022-09-10T22:40:34.834Z,42.70
2022-09-10T22:45:36.750Z,41.87
2022-09-10T22:50:38.617Z,43.44
2022-09-10T22:55:41.053Z,42.49
2022-09-10T23:00:42.969Z,44.38
2022-09-10T23:05:44.942Z,46.67
2022-09-10T23:10:46.834Z,46.38
2022-09-10T23:15:49.077Z,47.45
2022-09-10T23:20:50.992Z,46.02
2022-09-10T23:25:53.277Z,46.57
2022-09-10T23:30:55.401Z,46.58
2022-09-10T23:35:58.953Z,46.84
2022-09-10T23:41:01.153Z,47.31
2022-09-10T23:46:03.399Z,47.45
2022-09-10T23:51:06.721Z,47.59
2022-09-10T23:56:08.611Z,47.57
